Terminal Aerodrome Forecast
Issued by NWS

Home | Current Version | Previous Version | Text Only | Print | Product List | Glossary On
Versions: 1 2 3 4 5 6 7 8 9 10 11 12 13 14 15 16 17 18 19 20
000
FTUS43 KSGF 250500
TAFJLN
TAF
KJLN 250538Z 2506/2606 22015G22KT P6SM OVC090 WS010/30040KT
     FM250700 23011KT P6SM VCSH SCT030 OVC070 WS020/31040KT
     FM251100 27012KT P6SM OVC040
     FM251500 30020G30KT P6SM OVC025 PROB30 2516/2522 -SHRA
     FM260000 33014G20KT P6SM OVC020=

USA.gov is the U.S. government's official web portal to all federal, state and local government web resources and services.